sensor_id;sensor_type;location;lat;lon;timestamp;pressure;altitude;pressure_sealevel;temperature;humidity
56241;BME280;42155;53.096;23.226;2023-06-01T00:00:50;99966.78;;;9.91;62.58
56241;BME280;42155;53.096;23.226;2023-06-01T00:02:50;99900.94;;;9.51;62.72
56241;BME280;42155;53.096;23.226;2023-06-01T00:04:50;99974.50;;;9.94;62.36
56241;BME280;42155;53.096;23.226;2023-06-01T00:06:51;99968.09;;;9.85;63.06
56241;BME280;42155;53.096;23.226;2023-06-01T00:08:51;99968.94;;;9.86;63.60
56241;BME280;42155;53.096;23.226;2023-06-01T00:10:51;99975.06;;;9.86;63.20
56241;BME280;42155;53.096;23.226;2023-06-01T00:12:52;99964.84;;;9.82;62.93
56241;BME280;42155;53.096;23.226;2023-06-01T00:14:52;99940.22;;;9.68;62.80
56241;BME280;42155;53.096;23.226;2023-06-01T00:16:53;99886.81;;;9.28;62.80
56241;BME280;42155;53.096;23.226;2023-06-01T00:18:53;99963.38;;;9.78;63.59
56241;BME280;42155;53.096;23.226;2023-06-01T00:20:53;99965.31;;;9.76;63.22
56241;BME280;42155;53.096;23.226;2023-06-01T00:22:54;99931.31;;;9.58;63.61
56241;BME280;42155;53.096;23.226;2023-06-01T00:24:54;99954.19;;;9.70;63.31
56241;BME280;42155;53.096;23.226;2023-06-01T00:26:55;99956.13;;;9.68;63.07
56241;BME280;42155;53.096;23.226;2023-06-01T00:28:55;99957.59;;;9.61;63.25
56241;BME280;42155;53.096;23.226;2023-06-01T00:30:55;99960.94;;;9.63;64.12
56241;BME280;42155;53.096;23.226;2023-06-01T00:32:56;99963.72;;;9.62;63.58
56241;BME280;42155;53.096;23.226;2023-06-01T00:34:56;99962.00;;;9.61;63.20
56241;BME280;42155;53.096;23.226;2023-06-01T00:36:56;99959.50;;;9.59;63.26
56241;BME280;42155;53.096;23.226;2023-06-01T00:38:57;99966.72;;;9.57;63.24
56241;BME280;42155;53.096;23.226;2023-06-01T00:40:57;99956.34;;;9.54;63.56
56241;BME280;42155;53.096;23.226;2023-06-01T00:42:58;99971.41;;;9.54;63.58
56241;BME280;42155;53.096;23.226;2023-06-01T00:44:58;99965.25;;;9.53;63.99
56241;BME280;42155;53.096;23.226;2023-06-01T00:46:59;99938.50;;;9.34;63.48
56241;BME280;42155;53.096;23.226;2023-06-01T00:48:59;99950.78;;;9.46;63.92
56241;BME280;42155;53.096;23.226;2023-06-01T00:51:00;99961.28;;;9.48;63.95
56241;BME280;42155;53.096;23.226;2023-06-01T00:53:02;99954.28;;;9.47;63.51
56241;BME280;42155;53.096;23.226;2023-06-01T00:55:04;99956.34;;;9.43;63.89
56241;BME280;42155;53.096;23.226;2023-06-01T00:57:05;99944.28;;;9.39;64.06
56241;BME280;42155;53.096;23.226;2023-06-01T00:59:05;99948.00;;;9.36;63.52
56241;BME280;42155;53.096;23.226;2023-06-01T01:01:06;99920.03;;;9.21;63.72
56241;BME280;42155;53.096;23.226;2023-06-01T01:03:07;99908.94;;;9.16;63.92
56241;BME280;42155;53.096;23.226;2023-06-01T01:05:09;99949.31;;;9.42;63.73
56241;BME280;42155;53.096;23.226;2023-06-01T01:07:24;99922.31;;;9.26;64.10
56241;BME280;42155;53.096;23.226;2023-06-01T01:09:39;99939.91;;;9.38;63.73
56241;BME280;42155;53.096;23.226;2023-06-01T01:11:43;99942.91;;;9.33;64.31
56241;BME280;42155;53.096;23.226;2023-06-01T01:16:18;99935.44;;;9.27;64.40
56241;BME280;42155;53.096;23.226;2023-06-01T01:18:51;99942.53;;;9.27;64.48
56241;BME280;42155;53.096;23.226;2023-06-01T01:20:58;99941.09;;;9.23;63.99
56241;BME280;42155;53.096;23.226;2023-06-01T01:29:54;99936.47;;;9.13;64.68
56241;BME280;42155;53.096;23.226;2023-06-01T01:32:00;99921.06;;;9.07;64.69
56241;BME280;42155;53.096;23.226;2023-06-01T01:34:02;99930.69;;;9.08;64.36
56241;BME280;42155;53.096;23.226;2023-06-01T01:36:05;99923.94;;;9.04;64.31
56241;BME280;42155;53.096;23.226;2023-06-01T01:38:07;99926.56;;;9.04;64.91
56241;BME280;42155;53.096;23.226;2023-06-01T01:40:08;99917.91;;;9.02;64.98
56241;BME280;42155;53.096;23.226;2023-06-01T01:42:09;99918.00;;;9.01;65.02
56241;BME280;42155;53.096;23.226;2023-06-01T01:44:12;99917.28;;;8.99;64.78
56241;BME280;42155;53.096;23.226;2023-06-01T01:46:23;99820.22;;;8.40;64.88
56241;BME280;42155;53.096;23.226;2023-06-01T01:48:31;99910.75;;;8.91;65.16
56241;BME280;42155;53.096;23.226;2023-06-01T01:50:37;99917.84;;;8.91;65.19
56241;BME280;42155;53.096;23.226;2023-06-01T01:52:39;99916.78;;;8.93;65.23
56241;BME280;42155;53.096;23.226;2023-06-01T01:54:43;99912.97;;;8.98;64.94
56241;BME280;42155;53.096;23.226;2023-06-01T01:56:45;99913.81;;;8.98;65.17
56241;BME280;42155;53.096;23.226;2023-06-01T01:58:47;99904.53;;;8.92;64.78
56241;BME280;42155;53.096;23.226;2023-06-01T02:00:49;99918.09;;;8.88;65.74
56241;BME280;42155;53.096;23.226;2023-06-01T02:02:50;99908.69;;;8.84;65.61
56241;BME280;42155;53.096;23.226;2023-06-01T02:04:50;99908.19;;;8.79;65.81
56241;BME280;42155;53.096;23.226;2023-06-01T02:06:50;99910.09;;;8.77;65.43
56241;BME280;42155;53.096;23.226;2023-06-01T02:08:51;99881.38;;;8.59;65.79
56241;BME280;42155;53.096;23.226;2023-06-01T02:10:51;99909.38;;;8.75;65.65
56241;BME280;42155;53.096;23.226;2023-06-01T02:12:52;99899.34;;;8.67;66.06
56241;BME280;42155;53.096;23.226;2023-06-01T02:14:52;99910.56;;;8.71;66.32
56241;BME280;42155;53.096;23.226;2023-06-01T02:16:54;99915.09;;;8.68;66.12
56241;BME280;42155;53.096;23.226;2023-06-01T02:18:55;99911.75;;;8.66;66.15
56241;BME280;42155;53.096;23.226;2023-06-01T02:20:56;99887.13;;;8.53;66.34
56241;BME280;42155;53.096;23.226;2023-06-01T02:22:56;99912.69;;;8.65;66.34
56241;BME280;42155;53.096;23.226;2023-06-01T02:24:56;99904.84;;;8.64;66.39
56241;BME280;42155;53.096;23.226;2023-06-01T02:26:57;99892.22;;;8.56;65.96
56241;BME280;42155;53.096;23.226;2023-06-01T02:28:57;99886.78;;;8.58;66.25
56241;BME280;42155;53.096;23.226;2023-06-01T02:30:58;99914.38;;;8.66;65.82
56241;BME280;42155;53.096;23.226;2023-06-01T02:32:58;99904.25;;;8.60;66.06
56241;BME280;42155;53.096;23.226;2023-06-01T02:34:58;99911.63;;;8.68;66.70
56241;BME280;42155;53.096;23.226;2023-06-01T02:36:59;99910.78;;;8.67;66.58
56241;BME280;42155;53.096;23.226;2023-06-01T02:38:59;99906.22;;;8.70;66.21
56241;BME280;42155;53.096;23.226;2023-06-01T02:41:00;99913.19;;;8.71;66.71
56241;BME280;42155;53.096;23.226;2023-06-01T02:43:00;99901.66;;;8.72;66.85
56241;BME280;42155;53.096;23.226;2023-06-01T02:45:01;99906.72;;;8.75;66.60
56241;BME280;42155;53.096;23.226;2023-06-01T02:47:01;99903.84;;;8.78;66.92
56241;BME280;42155;53.096;23.226;2023-06-01T02:49:01;99891.56;;;8.77;66.71
56241;BME280;42155;53.096;23.226;2023-06-01T02:51:02;99864.25;;;8.65;66.79
56241;BME280;42155;53.096;23.226;2023-06-01T02:53:02;99899.56;;;8.88;66.80
56241;BME280;42155;53.096;23.226;2023-06-01T02:55:03;99894.78;;;8.93;66.20
56241;BME280;42155;53.096;23.226;2023-06-01T02:57:03;99878.91;;;8.93;66.31
56241;BME280;42155;53.096;23.226;2023-06-01T02:59:04;99872.38;;;8.86;66.17
56241;BME280;42155;53.096;23.226;2023-06-01T03:01:04;99887.97;;;9.02;66.71
56241;BME280;42155;53.096;23.226;2023-06-01T03:03:05;99862.53;;;8.88;66.69
56241;BME280;42155;53.096;23.226;2023-06-01T03:05:05;99889.66;;;9.14;66.19
56241;BME280;42155;53.096;23.226;2023-06-01T03:07:06;99885.69;;;9.19;66.34
56241;BME280;42155;53.096;23.226;2023-06-01T03:09:07;99866.09;;;9.11;66.27
56241;BME280;42155;53.096;23.226;2023-06-01T03:11:07;99887.28;;;9.33;66.30
56241;BME280;42155;53.096;23.226;2023-06-01T03:13:07;99884.06;;;9.41;66.36
56241;BME280;42155;53.096;23.226;2023-06-01T03:15:08;99881.69;;;9.49;66.33
56241;BME280;42155;53.096;23.226;2023-06-01T03:17:09;99868.66;;;9.46;66.06
56241;BME280;42155;53.096;23.226;2023-06-01T03:19:09;99884.09;;;9.63;66.02
56241;BME280;42155;53.096;23.226;2023-06-01T03:21:10;99876.41;;;9.72;66.49
56241;BME280;42155;53.096;23.226;2023-06-01T03:23:11;99882.91;;;9.79;66.07
56241;BME280;42155;53.096;23.226;2023-06-01T03:25:15;99870.22;;;9.93;66.03
56241;BME280;42155;53.096;23.226;2023-06-01T03:27:16;99876.97;;;10.42;65.50
56241;BME280;42155;53.096;23.226;2023-06-01T03:29:17;99865.91;;;12.14;61.74
56241;BME280;42155;53.096;23.226;2023-06-01T03:31:18;99853.94;;;14.11;57.12
56241;BME280;42155;53.096;23.226;2023-06-01T03:33:18;99854.19;;;16.02;53.18
56241;BME280;42155;53.096;23.226;2023-06-01T03:35:18;99846.53;;;17.40;50.28
56241;BME280;42155;53.096;23.226;2023-06-01T03:37:19;99844.28;;;17.76;48.55
56241;BME280;42155;53.096;23.226;2023-06-01T03:39:19;99835.88;;;18.26;47.61
56241;BME280;42155;53.096;23.226;2023-06-01T03:41:19;99833.19;;;19.86;45.11
56241;BME280;42155;53.096;23.226;2023-06-01T03:43:20;99820.66;;;21.57;41.54
56241;BME280;42155;53.096;23.226;2023-06-01T03:45:20;99830.16;;;23.30;38.70
56241;BME280;42155;53.096;23.226;2023-06-01T03:47:21;99818.03;;;24.69;35.93
56241;BME280;42155;53.096;23.226;2023-06-01T03:49:22;99809.00;;;25.94;33.84
56241;BME280;42155;53.096;23.226;2023-06-01T03:51:22;99811.25;;;27.17;32.62
56241;BME280;42155;53.096;23.226;2023-06-01T03:53:22;99805.47;;;28.24;31.12
56241;BME280;42155;53.096;23.226;2023-06-01T03:55:23;99800.41;;;29.24;29.16
56241;BME280;42155;53.096;23.226;2023-06-01T03:57:23;99797.50;;;30.08;28.36
56241;BME280;42155;53.096;23.226;2023-06-01T03:59:24;99792.31;;;30.87;26.87
56241;BME280;42155;53.096;23.226;2023-06-01T04:01:24;99791.56;;;31.66;26.09
56241;BME280;42155;53.096;23.226;2023-06-01T04:03:25;99787.97;;;32.29;25.50
56241;BME280;42155;53.096;23.226;2023-06-01T04:05:26;99778.22;;;32.94;24.19
56241;BME280;42155;53.096;23.226;2023-06-01T04:07:26;99780.03;;;33.60;23.61
56241;BME280;42155;53.096;23.226;2023-06-01T04:09:26;99777.13;;;34.16;22.72
56241;BME280;42155;53.096;23.226;2023-06-01T04:11:27;99773.19;;;34.66;22.21
56241;BME280;42155;53.096;23.226;2023-06-01T04:13:27;99757.84;;;34.89;21.92
56241;BME280;42155;53.096;23.226;2023-06-01T04:15:27;99773.06;;;35.50;21.57
56241;BME280;42155;53.096;23.226;2023-06-01T04:17:28;99773.88;;;35.99;21.50
56241;BME280;42155;53.096;23.226;2023-06-01T04:19:28;99768.28;;;36.41;20.45
56241;BME280;42155;53.096;23.226;2023-06-01T04:21:30;99766.09;;;36.95;19.84
56241;BME280;42155;53.096;23.226;2023-06-01T04:23:31;99758.63;;;37.42;18.96
56241;BME280;42155;53.096;23.226;2023-06-01T04:25:31;99762.00;;;37.80;19.11
56241;BME280;42155;53.096;23.226;2023-06-01T04:27:32;99760.31;;;38.20;19.31
56241;BME280;42155;53.096;23.226;2023-06-01T04:29:32;99753.16;;;38.56;18.56
56241;BME280;42155;53.096;23.226;2023-06-01T04:31:33;99751.72;;;38.81;18.34
56241;BME280;42155;53.096;23.226;2023-06-01T04:33:33;99743.31;;;38.94;17.80
56241;BME280;42155;53.096;23.226;2023-06-01T04:35:33;99742.53;;;39.25;17.68
56241;BME280;42155;53.096;23.226;2023-06-01T04:37:59;99742.06;;;39.71;17.15
56241;BME280;42155;53.096;23.226;2023-06-01T04:40:38;99744.94;;;40.24;17.29
56241;BME280;42155;53.096;23.226;2023-06-01T04:42:52;99745.44;;;40.34;16.45
56241;BME280;42155;53.096;23.226;2023-06-01T04:45:12;99753.16;;;40.55;16.75
56241;BME280;42155;53.096;23.226;2023-06-01T04:47:27;99744.59;;;40.08;16.63
56241;BME280;42155;53.096;23.226;2023-06-01T04:49:58;99748.13;;;39.82;17.74
56241;BME280;42155;53.096;23.226;2023-06-01T04:52:23;99747.41;;;40.34;17.12
56241;BME280;42155;53.096;23.226;2023-06-01T04:55:03;99739.69;;;40.39;17.14
56241;BME280;42155;53.096;23.226;2023-06-01T04:57:20;99737.88;;;39.52;17.37
56241;BME280;42155;53.096;23.226;2023-06-01T04:59:21;99745.56;;;38.70;18.80
56241;BME280;42155;53.096;23.226;2023-06-01T05:01:22;99740.47;;;37.50;19.12
56241;BME280;42155;53.096;23.226;2023-06-01T05:03:23;99748.34;;;36.07;20.92
56241;BME280;42155;53.096;23.226;2023-06-01T05:05:23;99745.69;;;34.95;21.24
56241;BME280;42155;53.096;23.226;2023-06-01T05:07:24;99717.00;;;34.23;22.34
56241;BME280;42155;53.096;23.226;2023-06-01T05:09:24;99740.97;;;33.63;22.22
56241;BME280;42155;53.096;23.226;2023-06-01T05:11:25;99728.44;;;32.70;23.54
56241;BME280;42155;53.096;23.226;2023-06-01T05:13:25;99748.72;;;32.33;24.07
56241;BME280;42155;53.096;23.226;2023-06-01T05:15:26;99748.69;;;32.23;23.62
56241;BME280;42155;53.096;23.226;2023-06-01T05:17:26;99744.22;;;31.97;23.90
56241;BME280;42155;53.096;23.226;2023-06-01T05:19:32;99731.41;;;31.55;23.80
56241;BME280;42155;53.096;23.226;2023-06-01T05:21:32;99742.44;;;30.85;24.56
56241;BME280;42155;53.096;23.226;2023-06-01T05:23:33;99743.19;;;30.22;25.32
56241;BME280;42155;53.096;23.226;2023-06-01T05:25:33;99729.50;;;30.00;25.78
56241;BME280;42155;53.096;23.226;2023-06-01T05:27:34;99751.41;;;30.00;25.20
56241;BME280;42155;53.096;23.226;2023-06-01T05:29:35;99757.75;;;29.78;26.06
56241;BME280;42155;53.096;23.226;2023-06-01T05:31:35;99754.88;;;29.51;26.42
56241;BME280;42155;53.096;23.226;2023-06-01T05:33:36;99755.19;;;29.33;26.64
56241;BME280;42155;53.096;23.226;2023-06-01T05:35:36;99743.34;;;29.27;27.21
56241;BME280;42155;53.096;23.226;2023-06-01T05:37:37;99741.69;;;29.26;26.57
56241;BME280;42155;53.096;23.226;2023-06-01T05:39:38;99744.81;;;29.35;27.04
56241;BME280;42155;53.096;23.226;2023-06-01T05:41:39;99742.81;;;29.30;26.87
56241;BME280;42155;53.096;23.226;2023-06-01T05:43:40;99740.84;;;29.26;26.92
56241;BME280;42155;53.096;23.226;2023-06-01T05:45:42;99730.59;;;29.16;27.64
56241;BME280;42155;53.096;23.226;2023-06-01T05:47:43;99697.69;;;28.89;27.07
56241;BME280;42155;53.096;23.226;2023-06-01T05:49:45;99725.28;;;28.92;27.55
56241;BME280;42155;53.096;23.226;2023-06-01T05:52:09;99728.28;;;28.74;28.24
56241;BME280;42155;53.096;23.226;2023-06-01T05:54:52;99730.09;;;28.52;28.07
56241;BME280;42155;53.096;23.226;2023-06-01T05:57:06;99732.34;;;28.55;27.53
56241;BME280;42155;53.096;23.226;2023-06-01T05:59:22;99724.47;;;28.58;28.44
56241;BME280;42155;53.096;23.226;2023-06-01T06:02:02;99725.66;;;28.62;28.11
56241;BME280;42155;53.096;23.226;2023-06-01T06:04:25;99707.34;;;28.46;28.27
56241;BME280;42155;53.096;23.226;2023-06-01T06:06:28;99722.66;;;28.64;29.15
56241;BME280;42155;53.096;23.226;2023-06-01T06:08:33;99725.13;;;28.65;28.15
56241;BME280;42155;53.096;23.226;2023-06-01T06:13:58;99713.91;;;28.62;28.24
56241;BME280;42155;53.096;23.226;2023-06-01T06:16:22;99721.16;;;28.39;28.11
56241;BME280;42155;53.096;23.226;2023-06-01T06:18:41;99714.31;;;28.25;28.47
56241;BME280;42155;53.096;23.226;2023-06-01T06:21:04;99711.53;;;28.37;29.17
56241;BME280;42155;53.096;23.226;2023-06-01T06:23:19;99714.22;;;28.49;28.34
56241;BME280;42155;53.096;23.226;2023-06-01T06:25:34;99712.44;;;28.42;28.95
56241;BME280;42155;53.096;23.226;2023-06-01T06:27:46;99711.19;;;28.33;28.55
56241;BME280;42155;53.096;23.226;2023-06-01T06:29:55;99703.88;;;28.22;29.02
56241;BME280;42155;53.096;23.226;2023-06-01T06:31:55;99713.34;;;28.31;28.58
56241;BME280;42155;53.096;23.226;2023-06-01T06:33:55;99710.25;;;28.39;29.38
56241;BME280;42155;53.096;23.226;2023-06-01T06:35:56;99707.34;;;28.46;28.72
56241;BME280;42155;53.096;23.226;2023-06-01T06:37:56;99695.16;;;28.37;29.28
56241;BME280;42155;53.096;23.226;2023-06-01T06:39:56;99702.63;;;28.41;29.20
56241;BME280;42155;53.096;23.226;2023-06-01T06:41:57;99709.72;;;28.42;28.90
56241;BME280;42155;53.096;23.226;2023-06-01T06:43:58;99701.75;;;28.24;29.54
56241;BME280;42155;53.096;23.226;2023-06-01T06:45:58;99697.50;;;28.16;29.02
56241;BME280;42155;53.096;23.226;2023-06-01T06:47:58;99697.25;;;28.18;29.49
56241;BME280;42155;53.096;23.226;2023-06-01T06:49:59;99698.81;;;28.14;29.52
56241;BME280;42155;53.096;23.226;2023-06-01T06:51:59;99694.44;;;28.13;29.48
56241;BME280;42155;53.096;23.226;2023-06-01T06:53:59;99675.06;;;27.98;29.83
56241;BME280;42155;53.096;23.226;2023-06-01T06:56:00;99671.75;;;27.96;30.46
56241;BME280;42155;53.096;23.226;2023-06-01T07:00:53;99695.97;;;28.21;29.75
56241;BME280;42155;53.096;23.226;2023-06-01T07:03:14;99685.69;;;28.11;29.81
56241;BME280;42155;53.096;23.226;2023-06-01T07:05:27;99684.88;;;28.10;29.61
56241;BME280;42155;53.096;23.226;2023-06-01T07:07:48;99686.00;;;28.14;30.59
56241;BME280;42155;53.096;23.226;2023-06-01T07:10:06;99675.63;;;28.00;30.85
56241;BME280;42155;53.096;23.226;2023-06-01T07:18:22;99682.09;;;27.94;30.54
56241;BME280;42155;53.096;23.226;2023-06-01T07:20:32;99667.69;;;27.70;31.82
56241;BME280;42155;53.096;23.226;2023-06-01T07:22:33;99682.38;;;27.80;32.46
56241;BME280;42155;53.096;23.226;2023-06-01T07:24:33;99650.28;;;27.59;32.11
56241;BME280;42155;53.096;23.226;2023-06-01T07:26:34;99666.63;;;27.59;31.68
56241;BME280;42155;53.096;23.226;2023-06-01T07:28:34;99676.25;;;27.61;31.31
56241;BME280;42155;53.096;23.226;2023-06-01T07:30:35;99679.78;;;27.62;31.45
56241;BME280;42155;53.096;23.226;2023-06-01T07:36:11;99628.78;;;27.46;31.42
56241;BME280;42155;53.096;23.226;2023-06-01T07:38:21;99662.09;;;27.76;30.93
56241;BME280;42155;53.096;23.226;2023-06-01T07:40:22;99670.03;;;27.78;31.38
56241;BME280;42155;53.096;23.226;2023-06-01T07:42:22;99666.38;;;27.72;31.62
56241;BME280;42155;53.096;23.226;2023-06-01T07:44:23;99670.16;;;27.71;31.85
56241;BME280;42155;53.096;23.226;2023-06-01T07:46:23;99669.72;;;27.62;31.71
56241;BME280;42155;53.096;23.226;2023-06-01T07:48:24;99674.34;;;27.62;32.26
56241;BME280;42155;53.096;23.226;2023-06-01T07:50:24;99619.81;;;27.33;32.37
56241;BME280;42155;53.096;23.226;2023-06-01T07:52:24;99644.97;;;27.52;31.66
56241;BME280;42155;53.096;23.226;2023-06-01T07:54:25;99664.16;;;27.57;30.84
56241;BME280;42155;53.096;23.226;2023-06-01T07:56:25;99657.19;;;27.50;31.69
56241;BME280;42155;53.096;23.226;2023-06-01T07:58:25;99671.66;;;27.50;30.71
56241;BME280;42155;53.096;23.226;2023-06-01T08:03:23;99592.13;;;26.89;30.65
56241;BME280;42155;53.096;23.226;2023-06-01T08:05:23;99666.97;;;27.22;30.73
56241;BME280;42155;53.096;23.226;2023-06-01T08:07:24;99662.84;;;27.20;31.74
56241;BME280;42155;53.096;23.226;2023-06-01T08:09:26;99657.59;;;27.30;30.86
56241;BME280;42155;53.096;23.226;2023-06-01T08:11:26;99656.31;;;27.32;30.97
56241;BME280;42155;53.096;23.226;2023-06-01T08:13:44;99660.69;;;27.33;31.35
56241;BME280;42155;53.096;23.226;2023-06-01T08:16:21;99656.63;;;27.36;30.86
56241;BME280;42155;53.096;23.226;2023-06-01T08:18:35;99659.22;;;27.42;30.33
56241;BME280;42155;53.096;23.226;2023-06-01T08:20:50;99653.19;;;27.40;30.37
56241;BME280;42155;53.096;23.226;2023-06-01T08:23:16;99657.47;;;27.36;31.47
56241;BME280;42155;53.096;23.226;2023-06-01T08:25:18;99650.22;;;27.42;30.96
56241;BME280;42155;53.096;23.226;2023-06-01T08:27:23;99642.69;;;27.32;31.10
56241;BME280;42155;53.096;23.226;2023-06-01T08:29:26;99642.56;;;27.27;31.69
56241;BME280;42155;53.096;23.226;2023-06-01T08:31:28;99639.50;;;27.24;30.88
56241;BME280;42155;53.096;23.226;2023-06-01T08:33:28;99630.81;;;27.27;31.03
56241;BME280;42155;53.096;23.226;2023-06-01T08:35:29;99629.16;;;27.26;31.05
56241;BME280;42155;53.096;23.226;2023-06-01T08:37:30;99635.44;;;27.26;31.43
56241;BME280;42155;53.096;23.226;2023-06-01T08:39:31;99632.00;;;27.31;31.84
56241;BME280;42155;53.096;23.226;2023-06-01T08:41:41;99631.88;;;27.37;31.34
56241;BME280;42155;53.096;23.226;2023-06-01T08:44:05;99636.63;;;27.30;30.88
56241;BME280;42155;53.096;23.226;2023-06-01T08:46:46;99635.06;;;27.34;30.37
56241;BME280;42155;53.096;23.226;2023-06-01T08:48:53;99634.63;;;27.26;29.57
56241;BME280;42155;53.096;23.226;2023-06-01T08:50:58;99613.91;;;26.89;30.52
56241;BME280;42155;53.096;23.226;2023-06-01T08:53:01;99629.31;;;26.96;30.42
56241;BME280;42155;53.096;23.226;2023-06-01T08:55:07;99617.13;;;26.86;30.75
56241;BME280;42155;53.096;23.226;2023-06-01T08:57:10;99633.22;;;26.88;30.77
56241;BME280;42155;53.096;23.226;2023-06-01T08:59:11;99630.75;;;26.86;30.28
56241;BME280;42155;53.096;23.226;2023-06-01T09:01:17;99623.66;;;26.85;30.28
56241;BME280;42155;53.096;23.226;2023-06-01T09:03:19;99617.00;;;26.93;31.23
56241;BME280;42155;53.096;23.226;2023-06-01T09:05:19;99617.34;;;26.97;30.41
56241;BME280;42155;53.096;23.226;2023-06-01T09:07:20;99615.59;;;26.90;30.51
56241;BME280;42155;53.096;23.226;2023-06-01T09:09:21;99602.81;;;26.91;31.63
56241;BME280;42155;53.096;23.226;2023-06-01T09:11:22;99554.53;;;26.63;30.53
56241;BME280;42155;53.096;23.226;2023-06-01T09:13:33;99605.84;;;26.95;30.88
56241;BME280;42155;53.096;23.226;2023-06-01T09:15:34;99590.03;;;26.91;30.67
56241;BME280;42155;53.096;23.226;2023-06-01T09:17:34;99603.28;;;27.00;29.77
56241;BME280;42155;53.096;23.226;2023-06-01T09:19:42;99596.03;;;27.05;29.78
56241;BME280;42155;53.096;23.226;2023-06-01T09:21:56;99605.59;;;27.08;29.91
56241;BME280;42155;53.096;23.226;2023-06-01T09:24:17;99604.09;;;27.12;30.11
56241;BME280;42155;53.096;23.226;2023-06-01T09:26:17;99598.41;;;27.13;30.22
56241;BME280;42155;53.096;23.226;2023-06-01T09:28:18;99601.47;;;27.17;29.36
56241;BME280;42155;53.096;23.226;2023-06-01T09:30:21;99598.41;;;27.13;30.03
56241;BME280;42155;53.096;23.226;2023-06-01T09:32:22;99597.44;;;27.08;30.36
56241;BME280;42155;53.096;23.226;2023-06-01T09:34:22;99592.38;;;27.00;30.70
56241;BME280;42155;53.096;23.226;2023-06-01T09:39:43;99588.25;;;27.09;30.78
56241;BME280;42155;53.096;23.226;2023-06-01T09:45:29;99596.16;;;27.10;31.03
56241;BME280;42155;53.096;23.226;2023-06-01T09:47:29;99586.78;;;27.06;30.57
56241;BME280;42155;53.096;23.226;2023-06-01T09:49:34;99579.00;;;27.10;30.93
56241;BME280;42155;53.096;23.226;2023-06-01T09:51:35;99588.34;;;27.14;31.23
56241;BME280;42155;53.096;23.226;2023-06-01T09:53:42;99586.09;;;27.11;30.25
56241;BME280;42155;53.096;23.226;2023-06-01T09:56:00;99545.28;;;26.87;30.55
56241;BME280;42155;53.096;23.226;2023-06-01T09:58:17;99570.69;;;27.05;31.53
56241;BME280;42155;53.096;23.226;2023-06-01T10:00:26;99584.53;;;27.03;30.53
56241;BME280;42155;53.096;23.226;2023-06-01T10:05:55;99578.38;;;27.08;31.37
56241;BME280;42155;53.096;23.226;2023-06-01T10:08:20;99587.84;;;27.17;30.90
56241;BME280;42155;53.096;23.226;2023-06-01T10:11:01;99578.03;;;27.16;30.80
56241;BME280;42155;53.096;23.226;2023-06-01T10:13:24;99577.91;;;27.11;30.86
56241;BME280;42155;53.096;23.226;2023-06-01T10:15:35;99569.41;;;26.96;31.04
56241;BME280;42155;53.096;23.226;2023-06-01T10:17:39;99507.56;;;26.56;30.96
56241;BME280;42155;53.096;23.226;2023-06-01T10:19:58;99569.41;;;26.96;30.24
56241;BME280;42155;53.096;23.226;2023-06-01T10:22:14;99563.81;;;27.02;31.69
56241;BME280;42155;53.096;23.226;2023-06-01T10:24:39;99569.38;;;27.19;31.56
56241;BME280;42155;53.096;23.226;2023-06-01T10:27:12;99559.22;;;27.14;31.38
56241;BME280;42155;53.096;23.226;2023-06-01T10:29:17;99530.22;;;26.97;31.62
56241;BME280;42155;53.096;23.226;2023-06-01T10:39:30;99547.22;;;27.15;31.25
56241;BME280;42155;53.096;23.226;2023-06-01T10:41:40;99553.16;;;27.12;30.85
56241;BME280;42155;53.096;23.226;2023-06-01T10:43:46;99547.00;;;27.05;31.85
56241;BME280;42155;53.096;23.226;2023-06-01T10:46:02;99539.41;;;27.07;30.90
56241;BME280;42155;53.096;23.226;2023-06-01T10:48:13;99534.56;;;26.98;31.59
56241;BME280;42155;53.096;23.226;2023-06-01T10:50:24;99525.13;;;27.00;32.29
56241;BME280;42155;53.096;23.226;2023-06-01T10:52:42;99533.13;;;27.07;31.93
56241;BME280;42155;53.096;23.226;2023-06-01T10:57:38;99528.56;;;26.96;32.43
56241;BME280;42155;53.096;23.226;2023-06-01T11:00:24;99515.22;;;26.82;32.44
56241;BME280;42155;53.096;23.226;2023-06-01T11:02:26;99537.19;;;26.92;32.10
56241;BME280;42155;53.096;23.226;2023-06-01T11:04:44;99531.50;;;26.94;30.07
56241;BME280;42155;53.096;23.226;2023-06-01T11:06:58;99541.34;;;26.95;30.08
56241;BME280;42155;53.096;23.226;2023-06-01T11:09:56;99518.72;;;26.95;30.57
56241;BME280;42155;53.096;23.226;2023-06-01T11:15:15;99519.88;;;26.99;31.17
56241;BME280;42155;53.096;23.226;2023-06-01T11:17:34;99514.06;;;27.07;30.12
56241;BME280;42155;53.096;23.226;2023-06-01T11:19:47;99509.25;;;27.09;29.80
56241;BME280;42155;53.096;23.226;2023-06-01T11:21:58;99452.13;;;26.74;29.38
56241;BME280;42155;53.096;23.226;2023-06-01T11:24:03;99511.72;;;26.99;29.54
56241;BME280;42155;53.096;23.226;2023-06-01T11:34:49;99498.41;;;26.85;31.39
56241;BME280;42155;53.096;23.226;2023-06-01T11:37:03;99486.53;;;26.91;30.10
56241;BME280;42155;53.096;23.226;2023-06-01T11:39:25;99490.47;;;26.84;30.06
56241;BME280;42155;53.096;23.226;2023-06-01T11:44:58;99484.56;;;26.75;30.49
56241;BME280;42155;53.096;23.226;2023-06-01T11:47:46;99500.16;;;26.80;30.27
56241;BME280;42155;53.096;23.226;2023-06-01T11:50:30;99491.63;;;26.88;30.14
56241;BME280;42155;53.096;23.226;2023-06-01T11:52:49;99481.56;;;26.88;30.32
56241;BME280;42155;53.096;23.226;2023-06-01T11:55:07;99476.13;;;26.88;30.57
56241;BME280;42155;53.096;23.226;2023-06-01T11:57:48;99476.13;;;26.88;30.64
56241;BME280;42155;53.096;23.226;2023-06-01T12:00:19;99479.75;;;26.94;29.97
56241;BME280;42155;53.096;23.226;2023-06-01T12:02:35;99478.13;;;26.93;30.72
56241;BME280;42155;53.096;23.226;2023-06-01T12:05:00;99417.19;;;26.54;30.52
56241;BME280;42155;53.096;23.226;2023-06-01T12:07:19;99471.03;;;26.92;30.31